sensor_id;sensor_type;location;lat;lon;timestamp;P1;durP1;ratioP1;P2;durP2;ratioP2
74168;SDS011;62523;53.336;83.690;2022-11-04T00:03:29;67.72;;;26.48;;
74168;SDS011;62523;53.336;83.690;2022-11-04T00:08:30;51.30;;;23.73;;
74168;SDS011;62523;53.336;83.690;2022-11-04T00:13:32;57.63;;;21.45;;
74168;SDS011;62523;53.336;83.690;2022-11-04T00:18:34;83.47;;;19.35;;
74168;SDS011;62523;53.336;83.690;2022-11-04T00:23:35;44.85;;;17.42;;
74168;SDS011;62523;53.336;83.690;2022-11-04T00:28:55;82.85;;;20.33;;
74168;SDS011;62523;53.336;83.690;2022-11-04T00:33:57;55.50;;;16.73;;
74168;SDS011;62523;53.336;83.690;2022-11-04T00:38:58;69.93;;;14.95;;
74168;SDS011;62523;53.336;83.690;2022-11-04T00:44:01;64.72;;;16.55;;
74168;SDS011;62523;53.336;83.690;2022-11-04T00:49:03;64.43;;;16.02;;
74168;SDS011;62523;53.336;83.690;2022-11-04T00:54:04;99.70;;;18.40;;
74168;SDS011;62523;53.336;83.690;2022-11-04T00:59:06;48.17;;;15.23;;
74168;SDS011;62523;53.336;83.690;2022-11-04T01:09:09;66.75;;;18.02;;
74168;SDS011;62523;53.336;83.690;2022-11-04T01:14:13;78.13;;;21.05;;
74168;SDS011;62523;53.336;83.690;2022-11-04T01:19:15;81.20;;;25.02;;
74168;SDS011;62523;53.336;83.690;2022-11-04T01:24:17;43.83;;;21.65;;
74168;SDS011;62523;53.336;83.690;2022-11-04T01:29:18;80.38;;;23.67;;
74168;SDS011;62523;53.336;83.690;2022-11-04T01:34:20;78.78;;;22.92;;
74168;SDS011;62523;53.336;83.690;2022-11-04T01:39:21;71.50;;;26.75;;
74168;SDS011;62523;53.336;83.690;2022-11-04T01:49:42;81.15;;;30.75;;
74168;SDS011;62523;53.336;83.690;2022-11-04T01:54:47;56.40;;;30.73;;
74168;SDS011;62523;53.336;83.690;2022-11-04T01:59:51;53.05;;;22.98;;
74168;SDS011;62523;53.336;83.690;2022-11-04T02:04:52;38.22;;;21.27;;
74168;SDS011;62523;53.336;83.690;2022-11-04T02:09:53;53.97;;;19.05;;
74168;SDS011;62523;53.336;83.690;2022-11-04T02:14:55;51.65;;;20.02;;
74168;SDS011;62523;53.336;83.690;2022-11-04T02:30:42;31.67;;;17.23;;
74168;SDS011;62523;53.336;83.690;2022-11-04T02:41:13;39.15;;;19.23;;
74168;SDS011;62523;53.336;83.690;2022-11-04T02:46:45;52.35;;;25.13;;
74168;SDS011;62523;53.336;83.690;2022-11-04T02:52:03;61.25;;;24.17;;
74168;SDS011;62523;53.336;83.690;2022-11-04T02:57:12;49.95;;;24.95;;
74168;SDS011;62523;53.336;83.690;2022-11-04T03:02:21;69.47;;;24.30;;
74168;SDS011;62523;53.336;83.690;2022-11-04T03:07:30;49.13;;;21.67;;
74168;SDS011;62523;53.336;83.690;2022-11-04T03:12:38;34.90;;;18.30;;
74168;SDS011;62523;53.336;83.690;2022-11-04T03:17:52;47.80;;;21.80;;
74168;SDS011;62523;53.336;83.690;2022-11-04T03:23:01;47.67;;;19.92;;
74168;SDS011;62523;53.336;83.690;2022-11-04T03:28:16;60.20;;;25.58;;
74168;SDS011;62523;53.336;83.690;2022-11-04T03:38:30;53.80;;;23.52;;
74168;SDS011;62523;53.336;83.690;2022-11-04T03:48:34;54.28;;;23.30;;
74168;SDS011;62523;53.336;83.690;2022-11-04T03:53:36;39.33;;;21.35;;
74168;SDS011;62523;53.336;83.690;2022-11-04T04:04:16;45.58;;;24.77;;
74168;SDS011;62523;53.336;83.690;2022-11-04T04:14:54;42.00;;;18.20;;
74168;SDS011;62523;53.336;83.690;2022-11-04T04:20:03;38.50;;;17.65;;
74168;SDS011;62523;53.336;83.690;2022-11-04T04:25:13;43.65;;;15.95;;
74168;SDS011;62523;53.336;83.690;2022-11-04T04:30:35;48.20;;;17.10;;
74168;SDS011;62523;53.336;83.690;2022-11-04T04:35:50;28.00;;;14.07;;
74168;SDS011;62523;53.336;83.690;2022-11-04T04:41:03;28.95;;;15.10;;
74168;SDS011;62523;53.336;83.690;2022-11-04T04:46:28;21.08;;;14.10;;
74168;SDS011;62523;53.336;83.690;2022-11-04T04:51:32;16.75;;;10.82;;
74168;SDS011;62523;53.336;83.690;2022-11-04T04:56:38;17.70;;;9.55;;
74168;SDS011;62523;53.336;83.690;2022-11-04T05:01:40;18.60;;;9.73;;
74168;SDS011;62523;53.336;83.690;2022-11-04T05:11:42;16.80;;;9.63;;
74168;SDS011;62523;53.336;83.690;2022-11-04T05:21:44;27.60;;;13.00;;
74168;SDS011;62523;53.336;83.690;2022-11-04T05:31:46;22.13;;;13.43;;
74168;SDS011;62523;53.336;83.690;2022-11-04T05:36:47;30.80;;;12.70;;
74168;SDS011;62523;53.336;83.690;2022-11-04T05:46:50;29.17;;;17.10;;
74168;SDS011;62523;53.336;83.690;2022-11-04T05:51:51;28.20;;;17.00;;
74168;SDS011;62523;53.336;83.690;2022-11-04T06:01:53;53.22;;;23.90;;
74168;SDS011;62523;53.336;83.690;2022-11-04T06:11:56;24.35;;;14.65;;
74168;SDS011;62523;53.336;83.690;2022-11-04T06:21:58;15.13;;;9.70;;
74168;SDS011;62523;53.336;83.690;2022-11-04T06:26:59;19.25;;;10.73;;
74168;SDS011;62523;53.336;83.690;2022-11-04T06:32:01;37.17;;;22.23;;
74168;SDS011;62523;53.336;83.690;2022-11-04T06:37:03;26.95;;;14.95;;
74168;SDS011;62523;53.336;83.690;2022-11-04T06:42:05;44.67;;;27.63;;
74168;SDS011;62523;53.336;83.690;2022-11-04T06:47:06;24.95;;;15.93;;
74168;SDS011;62523;53.336;83.690;2022-11-04T06:52:07;47.50;;;17.63;;
74168;SDS011;62523;53.336;83.690;2022-11-04T07:02:11;24.13;;;14.35;;
74168;SDS011;62523;53.336;83.690;2022-11-04T07:07:13;20.73;;;11.70;;
74168;SDS011;62523;53.336;83.690;2022-11-04T07:12:14;25.35;;;13.23;;
74168;SDS011;62523;53.336;83.690;2022-11-04T07:17:15;25.27;;;15.20;;
74168;SDS011;62523;53.336;83.690;2022-11-04T07:27:17;21.33;;;12.00;;
74168;SDS011;62523;53.336;83.690;2022-11-04T07:32:19;17.17;;;11.55;;
74168;SDS011;62523;53.336;83.690;2022-11-04T07:37:20;14.48;;;10.57;;
74168;SDS011;62523;53.336;83.690;2022-11-04T07:47:23;17.87;;;9.93;;
74168;SDS011;62523;53.336;83.690;2022-11-04T07:57:25;17.23;;;10.83;;
74168;SDS011;62523;53.336;83.690;2022-11-04T08:02:28;12.35;;;9.18;;
74168;SDS011;62523;53.336;83.690;2022-11-04T08:07:29;12.05;;;8.30;;
74168;SDS011;62523;53.336;83.690;2022-11-04T08:12:32;13.00;;;8.50;;
74168;SDS011;62523;53.336;83.690;2022-11-04T08:17:33;10.05;;;8.18;;
74168;SDS011;62523;53.336;83.690;2022-11-04T08:27:36;13.50;;;6.13;;
74168;SDS011;62523;53.336;83.690;2022-11-04T08:32:37;9.52;;;6.13;;
74168;SDS011;62523;53.336;83.690;2022-11-04T08:37:39;10.27;;;5.88;;
74168;SDS011;62523;53.336;83.690;2022-11-04T08:42:41;12.68;;;6.82;;
74168;SDS011;62523;53.336;83.690;2022-11-04T08:47:43;10.55;;;7.90;;
74168;SDS011;62523;53.336;83.690;2022-11-04T08:57:45;7.53;;;5.63;;
74168;SDS011;62523;53.336;83.690;2022-11-04T09:02:47;6.95;;;5.22;;
74168;SDS011;62523;53.336;83.690;2022-11-04T09:07:51;10.48;;;7.88;;
74168;SDS011;62523;53.336;83.690;2022-11-04T09:12:52;18.02;;;10.73;;
74168;SDS011;62523;53.336;83.690;2022-11-04T09:17:53;10.18;;;5.55;;
74168;SDS011;62523;53.336;83.690;2022-11-04T09:22:54;7.80;;;6.13;;
74168;SDS011;62523;53.336;83.690;2022-11-04T09:27:56;10.10;;;5.63;;
74168;SDS011;62523;53.336;83.690;2022-11-04T09:32:57;10.63;;;6.55;;
74168;SDS011;62523;53.336;83.690;2022-11-04T09:37:59;13.93;;;7.13;;
74168;SDS011;62523;53.336;83.690;2022-11-04T09:43:13;14.48;;;8.20;;
74168;SDS011;62523;53.336;83.690;2022-11-04T09:48:27;8.77;;;7.20;;
74168;SDS011;62523;53.336;83.690;2022-11-04T09:58:43;12.18;;;8.20;;
74168;SDS011;62523;53.336;83.690;2022-11-04T10:25:21;22.17;;;14.85;;
74168;SDS011;62523;53.336;83.690;2022-11-04T10:30:25;20.42;;;14.48;;
74168;SDS011;62523;53.336;83.690;2022-11-04T10:35:45;22.50;;;15.70;;
74168;SDS011;62523;53.336;83.690;2022-11-04T10:40:50;25.75;;;16.88;;
74168;SDS011;62523;53.336;83.690;2022-11-04T10:46:00;25.02;;;15.02;;
74168;SDS011;62523;53.336;83.690;2022-11-04T10:51:04;23.80;;;14.15;;
74168;SDS011;62523;53.336;83.690;2022-11-04T10:56:10;22.45;;;14.30;;
74168;SDS011;62523;53.336;83.690;2022-11-04T11:06:49;32.22;;;15.75;;
74168;SDS011;62523;53.336;83.690;2022-11-04T11:11:52;21.55;;;13.60;;
74168;SDS011;62523;53.336;83.690;2022-11-04T11:17:38;22.70;;;14.63;;
74168;SDS011;62523;53.336;83.690;2022-11-04T11:22:52;29.20;;;15.27;;
74168;SDS011;62523;53.336;83.690;2022-11-04T11:28:20;24.50;;;15.30;;
74168;SDS011;62523;53.336;83.690;2022-11-04T11:33:45;20.40;;;12.98;;
74168;SDS011;62523;53.336;83.690;2022-11-04T11:39:18;27.25;;;13.85;;
74168;SDS011;62523;53.336;83.690;2022-11-04T11:44:41;17.70;;;10.85;;
74168;SDS011;62523;53.336;83.690;2022-11-04T11:50:15;17.48;;;9.90;;
74168;SDS011;62523;53.336;83.690;2022-11-04T11:55:38;14.38;;;8.63;;
74168;SDS011;62523;53.336;83.690;2022-11-04T12:12:17;11.68;;;8.60;;
74168;SDS011;62523;53.336;83.690;2022-11-04T12:29:00;12.38;;;8.40;;
74168;SDS011;62523;53.336;83.690;2022-11-04T12:35:01;12.82;;;7.60;;
74168;SDS011;62523;53.336;83.690;2022-11-04T13:00:42;13.43;;;9.35;;
74168;SDS011;62523;53.336;83.690;2022-11-04T13:05:53;14.23;;;9.38;;
74168;SDS011;62523;53.336;83.690;2022-11-04T13:11:07;19.92;;;12.35;;
74168;SDS011;62523;53.336;83.690;2022-11-04T13:16:22;21.33;;;15.60;;
74168;SDS011;62523;53.336;83.690;2022-11-04T13:26:27;23.38;;;13.90;;
74168;SDS011;62523;53.336;83.690;2022-11-04T13:47:16;13.77;;;11.52;;
74168;SDS011;62523;53.336;83.690;2022-11-04T13:52:23;15.93;;;10.18;;
74168;SDS011;62523;53.336;83.690;2022-11-04T13:57:48;12.50;;;9.50;;
74168;SDS011;62523;53.336;83.690;2022-11-04T14:08:27;19.88;;;8.52;;
74168;SDS011;62523;53.336;83.690;2022-11-04T14:18:34;9.45;;;6.00;;
74168;SDS011;62523;53.336;83.690;2022-11-04T14:23:36;11.43;;;5.85;;
74168;SDS011;62523;53.336;83.690;2022-11-04T14:28:41;14.18;;;8.52;;
74168;SDS011;62523;53.336;83.690;2022-11-04T14:33:49;11.10;;;8.32;;
74168;SDS011;62523;53.336;83.690;2022-11-04T14:44:06;34.22;;;20.02;;
74168;SDS011;62523;53.336;83.690;2022-11-04T14:54:48;10.35;;;6.95;;
74168;SDS011;62523;53.336;83.690;2022-11-04T14:59:54;13.73;;;8.13;;
74168;SDS011;62523;53.336;83.690;2022-11-04T15:04:59;19.70;;;11.05;;
74168;SDS011;62523;53.336;83.690;2022-11-04T15:15:37;14.10;;;8.95;;
74168;SDS011;62523;53.336;83.690;2022-11-04T15:20:48;13.52;;;8.75;;
74168;SDS011;62523;53.336;83.690;2022-11-04T15:25:56;14.75;;;9.38;;
74168;SDS011;62523;53.336;83.690;2022-11-04T15:36:16;16.10;;;10.02;;
74168;SDS011;62523;53.336;83.690;2022-11-04T15:41:24;13.50;;;8.93;;
74168;SDS011;62523;53.336;83.690;2022-11-04T15:46:57;22.25;;;11.10;;
74168;SDS011;62523;53.336;83.690;2022-11-04T15:52:00;25.25;;;13.50;;
74168;SDS011;62523;53.336;83.690;2022-11-04T16:02:28;22.23;;;13.40;;
74168;SDS011;62523;53.336;83.690;2022-11-04T16:07:39;21.90;;;13.77;;
74168;SDS011;62523;53.336;83.690;2022-11-04T16:12:42;18.35;;;13.25;;
74168;SDS011;62523;53.336;83.690;2022-11-04T16:17:44;41.25;;;25.50;;
74168;SDS011;62523;53.336;83.690;2022-11-04T16:22:46;23.77;;;14.48;;
74168;SDS011;62523;53.336;83.690;2022-11-04T16:32:50;21.63;;;12.10;;
74168;SDS011;62523;53.336;83.690;2022-11-04T16:37:54;16.00;;;11.88;;
74168;SDS011;62523;53.336;83.690;2022-11-04T16:42:56;26.15;;;14.77;;
74168;SDS011;62523;53.336;83.690;2022-11-04T16:48:00;18.40;;;14.70;;
74168;SDS011;62523;53.336;83.690;2022-11-04T16:53:02;23.13;;;15.98;;
74168;SDS011;62523;53.336;83.690;2022-11-04T16:58:03;23.42;;;14.98;;
74168;SDS011;62523;53.336;83.690;2022-11-04T17:03:11;25.60;;;14.52;;
74168;SDS011;62523;53.336;83.690;2022-11-04T17:08:21;22.30;;;13.13;;
74168;SDS011;62523;53.336;83.690;2022-11-04T17:13:26;17.75;;;12.35;;
74168;SDS011;62523;53.336;83.690;2022-11-04T17:18:29;18.08;;;12.57;;
74168;SDS011;62523;53.336;83.690;2022-11-04T17:23:32;18.40;;;13.10;;
74168;SDS011;62523;53.336;83.690;2022-11-04T17:28:33;45.65;;;31.90;;
74168;SDS011;62523;53.336;83.690;2022-11-04T17:33:34;23.80;;;15.63;;
74168;SDS011;62523;53.336;83.690;2022-11-04T17:38:38;20.40;;;13.38;;
74168;SDS011;62523;53.336;83.690;2022-11-04T17:49:16;23.65;;;17.65;;
74168;SDS011;62523;53.336;83.690;2022-11-04T17:54:20;21.00;;;13.35;;
74168;SDS011;62523;53.336;83.690;2022-11-04T17:59:22;19.83;;;12.23;;
74168;SDS011;62523;53.336;83.690;2022-11-04T18:04:24;17.88;;;11.35;;
74168;SDS011;62523;53.336;83.690;2022-11-04T18:09:25;16.48;;;10.80;;
74168;SDS011;62523;53.336;83.690;2022-11-04T18:14:27;17.38;;;12.50;;
74168;SDS011;62523;53.336;83.690;2022-11-04T18:19:28;21.35;;;13.73;;
74168;SDS011;62523;53.336;83.690;2022-11-04T18:29:30;24.40;;;16.90;;
74168;SDS011;62523;53.336;83.690;2022-11-04T18:34:31;19.65;;;15.52;;
74168;SDS011;62523;53.336;83.690;2022-11-04T18:39:33;19.38;;;13.25;;
74168;SDS011;62523;53.336;83.690;2022-11-04T18:44:34;21.67;;;14.13;;
74168;SDS011;62523;53.336;83.690;2022-11-04T18:49:36;18.40;;;13.43;;
74168;SDS011;62523;53.336;83.690;2022-11-04T18:54:37;18.70;;;13.75;;
74168;SDS011;62523;53.336;83.690;2022-11-04T19:04:39;27.30;;;18.10;;
74168;SDS011;62523;53.336;83.690;2022-11-04T19:09:40;22.38;;;16.08;;
74168;SDS011;62523;53.336;83.690;2022-11-04T19:19:43;15.87;;;11.90;;
74168;SDS011;62523;53.336;83.690;2022-11-04T19:24:44;16.80;;;12.02;;
74168;SDS011;62523;53.336;83.690;2022-11-04T19:34:46;19.20;;;13.40;;
74168;SDS011;62523;53.336;83.690;2022-11-04T19:39:49;23.08;;;15.07;;
74168;SDS011;62523;53.336;83.690;2022-11-04T19:44:50;35.90;;;23.40;;
74168;SDS011;62523;53.336;83.690;2022-11-04T19:49:51;24.98;;;16.25;;
74168;SDS011;62523;53.336;83.690;2022-11-04T19:54:53;23.40;;;14.38;;
74168;SDS011;62523;53.336;83.690;2022-11-04T19:59:54;26.92;;;18.48;;
74168;SDS011;62523;53.336;83.690;2022-11-04T20:04:55;21.05;;;13.57;;
74168;SDS011;62523;53.336;83.690;2022-11-04T20:09:56;29.73;;;21.55;;
74168;SDS011;62523;53.336;83.690;2022-11-04T20:14:57;29.48;;;21.15;;
74168;SDS011;62523;53.336;83.690;2022-11-04T20:19:59;24.13;;;16.38;;
74168;SDS011;62523;53.336;83.690;2022-11-04T20:25:00;21.38;;;16.83;;
74168;SDS011;62523;53.336;83.690;2022-11-04T20:30:01;29.73;;;18.98;;
74168;SDS011;62523;53.336;83.690;2022-11-04T20:35:03;25.52;;;18.40;;
74168;SDS011;62523;53.336;83.690;2022-11-04T20:40:05;27.85;;;19.85;;
74168;SDS011;62523;53.336;83.690;2022-11-04T20:45:07;23.95;;;17.35;;
74168;SDS011;62523;53.336;83.690;2022-11-04T20:55:10;35.35;;;18.20;;
74168;SDS011;62523;53.336;83.690;2022-11-04T21:05:12;23.65;;;15.82;;
74168;SDS011;62523;53.336;83.690;2022-11-04T21:10:15;21.60;;;14.73;;
74168;SDS011;62523;53.336;83.690;2022-11-04T21:15:16;25.90;;;16.42;;
74168;SDS011;62523;53.336;83.690;2022-11-04T21:20:36;24.02;;;18.08;;
74168;SDS011;62523;53.336;83.690;2022-11-04T21:25:43;28.98;;;19.55;;
74168;SDS011;62523;53.336;83.690;2022-11-04T21:30:47;24.60;;;18.00;;
74168;SDS011;62523;53.336;83.690;2022-11-04T21:35:49;31.63;;;19.35;;
74168;SDS011;62523;53.336;83.690;2022-11-04T21:45:51;36.67;;;19.30;;
74168;SDS011;62523;53.336;83.690;2022-11-04T21:51:21;27.40;;;17.40;;
74168;SDS011;62523;53.336;83.690;2022-11-04T21:56:23;29.15;;;16.52;;
74168;SDS011;62523;53.336;83.690;2022-11-04T22:01:26;29.02;;;17.02;;
74168;SDS011;62523;53.336;83.690;2022-11-04T22:06:29;30.38;;;17.73;;
74168;SDS011;62523;53.336;83.690;2022-11-04T22:11:33;28.70;;;16.05;;
74168;SDS011;62523;53.336;83.690;2022-11-04T22:16:37;39.30;;;17.25;;
74168;SDS011;62523;53.336;83.690;2022-11-04T22:21:40;28.67;;;17.98;;
74168;SDS011;62523;53.336;83.690;2022-11-04T22:26:42;44.65;;;19.48;;
74168;SDS011;62523;53.336;83.690;2022-11-04T22:31:45;48.42;;;22.15;;
74168;SDS011;62523;53.336;83.690;2022-11-04T22:36:46;41.65;;;23.45;;
74168;SDS011;62523;53.336;83.690;2022-11-04T22:41:47;36.92;;;22.45;;
74168;SDS011;62523;53.336;83.690;2022-11-04T22:46:49;40.35;;;22.75;;
74168;SDS011;62523;53.336;83.690;2022-11-04T22:51:50;29.05;;;16.15;;
74168;SDS011;62523;53.336;83.690;2022-11-04T22:56:51;39.85;;;20.27;;
74168;SDS011;62523;53.336;83.690;2022-11-04T23:01:53;38.95;;;22.17;;
74168;SDS011;62523;53.336;83.690;2022-11-04T23:06:54;38.35;;;19.45;;
74168;SDS011;62523;53.336;83.690;2022-11-04T23:11:55;34.03;;;18.80;;
74168;SDS011;62523;53.336;83.690;2022-11-04T23:17:16;35.17;;;19.33;;
74168;SDS011;62523;53.336;83.690;2022-11-04T23:22:37;34.20;;;17.40;;
74168;SDS011;62523;53.336;83.690;2022-11-04T23:27:57;26.73;;;16.55;;
74168;SDS011;62523;53.336;83.690;2022-11-04T23:33:17;33.38;;;16.65;;
74168;SDS011;62523;53.336;83.690;2022-11-04T23:43:19;33.60;;;18.52;;
74168;SDS011;62523;53.336;83.690;2022-11-04T23:48:20;31.08;;;16.95;;
74168;SDS011;62523;53.336;83.690;2022-11-04T23:53:40;32.63;;;16.80;;
74168;SDS011;62523;53.336;83.690;2022-11-04T23:59:00;43.00;;;19.10;;
